sensor_id;sensor_type;location;lat;lon;timestamp;temperature;humidity
7708;DHT22;3896;48.758;8.888;2023-11-19T00:00:40;8.70;99.90
7708;DHT22;3896;48.758;8.888;2023-11-19T00:03:06;8.70;99.90
7708;DHT22;3896;48.758;8.888;2023-11-19T00:05:31;8.70;99.90
7708;DHT22;3896;48.758;8.888;2023-11-19T00:07:57;8.80;99.90
7708;DHT22;3896;48.758;8.888;2023-11-19T00:10:22;8.80;99.90
7708;DHT22;3896;48.758;8.888;2023-11-19T00:12:49;8.80;99.90
7708;DHT22;3896;48.758;8.888;2023-11-19T00:15:16;8.80;99.90
7708;DHT22;3896;48.758;8.888;2023-11-19T00:17:45;8.80;99.90
7708;DHT22;3896;48.758;8.888;2023-11-19T00:20:12;8.90;99.90
7708;DHT22;3896;48.758;8.888;2023-11-19T00:22:37;8.90;99.90
7708;DHT22;3896;48.758;8.888;2023-11-19T00:25:03;8.90;99.90
7708;DHT22;3896;48.758;8.888;2023-11-19T00:27:29;9.00;99.90
7708;DHT22;3896;48.758;8.888;2023-11-19T00:29:55;9.10;99.90
7708;DHT22;3896;48.758;8.888;2023-11-19T00:32:22;9.10;99.90
7708;DHT22;3896;48.758;8.888;2023-11-19T00:34:47;9.10;99.90
7708;DHT22;3896;48.758;8.888;2023-11-19T00:37:14;9.10;99.90
7708;DHT22;3896;48.758;8.888;2023-11-19T00:39:41;9.20;99.90
7708;DHT22;3896;48.758;8.888;2023-11-19T00:42:06;9.20;99.90
7708;DHT22;3896;48.758;8.888;2023-11-19T00:44:32;9.30;99.90
7708;DHT22;3896;48.758;8.888;2023-11-19T00:46:57;9.30;99.90
7708;DHT22;3896;48.758;8.888;2023-11-19T00:49:23;9.40;99.90
7708;DHT22;3896;48.758;8.888;2023-11-19T00:51:49;9.40;99.90
7708;DHT22;3896;48.758;8.888;2023-11-19T00:54:14;9.40;99.90
7708;DHT22;3896;48.758;8.888;2023-11-19T00:56:40;9.40;99.90
7708;DHT22;3896;48.758;8.888;2023-11-19T00:59:06;9.50;99.90
7708;DHT22;3896;48.758;8.888;2023-11-19T01:01:31;9.50;99.90
7708;DHT22;3896;48.758;8.888;2023-11-19T01:03:57;9.50;99.90
7708;DHT22;3896;48.758;8.888;2023-11-19T01:06:32;9.60;99.90
7708;DHT22;3896;48.758;8.888;2023-11-19T01:08:58;9.60;99.90
7708;DHT22;3896;48.758;8.888;2023-11-19T01:11:24;9.60;99.90
7708;DHT22;3896;48.758;8.888;2023-11-19T01:13:51;9.60;99.90
7708;DHT22;3896;48.758;8.888;2023-11-19T01:16:17;9.70;99.90
7708;DHT22;3896;48.758;8.888;2023-11-19T01:18:43;9.70;99.90
7708;DHT22;3896;48.758;8.888;2023-11-19T01:21:08;9.70;99.90
7708;DHT22;3896;48.758;8.888;2023-11-19T01:23:34;9.80;99.90
7708;DHT22;3896;48.758;8.888;2023-11-19T01:26:00;9.80;99.90
7708;DHT22;3896;48.758;8.888;2023-11-19T01:28:26;9.80;99.90
7708;DHT22;3896;48.758;8.888;2023-11-19T01:30:52;9.80;99.90
7708;DHT22;3896;48.758;8.888;2023-11-19T01:33:17;9.90;99.90
7708;DHT22;3896;48.758;8.888;2023-11-19T01:35:43;9.90;99.90
7708;DHT22;3896;48.758;8.888;2023-11-19T01:38:08;9.90;99.90
7708;DHT22;3896;48.758;8.888;2023-11-19T01:40:34;9.90;99.90
7708;DHT22;3896;48.758;8.888;2023-11-19T01:43:02;9.90;99.90
7708;DHT22;3896;48.758;8.888;2023-11-19T01:45:29;10.00;99.90
7708;DHT22;3896;48.758;8.888;2023-11-19T01:47:56;10.00;99.90
7708;DHT22;3896;48.758;8.888;2023-11-19T01:50:23;10.00;99.90
7708;DHT22;3896;48.758;8.888;2023-11-19T01:52:52;10.00;99.90
7708;DHT22;3896;48.758;8.888;2023-11-19T01:55:18;10.00;99.90
7708;DHT22;3896;48.758;8.888;2023-11-19T01:57:45;10.00;99.90
7708;DHT22;3896;48.758;8.888;2023-11-19T02:00:12;10.10;99.90
7708;DHT22;3896;48.758;8.888;2023-11-19T02:02:39;10.10;99.90
7708;DHT22;3896;48.758;8.888;2023-11-19T02:05:06;10.10;99.90
7708;DHT22;3896;48.758;8.888;2023-11-19T02:07:32;10.10;99.90
7708;DHT22;3896;48.758;8.888;2023-11-19T02:09:57;10.20;99.90
7708;DHT22;3896;48.758;8.888;2023-11-19T02:12:26;10.20;99.90
7708;DHT22;3896;48.758;8.888;2023-11-19T02:14:53;10.20;99.90
7708;DHT22;3896;48.758;8.888;2023-11-19T02:17:30;10.20;99.90
7708;DHT22;3896;48.758;8.888;2023-11-19T02:20:00;10.20;99.90
7708;DHT22;3896;48.758;8.888;2023-11-19T02:22:26;10.30;99.90
7708;DHT22;3896;48.758;8.888;2023-11-19T02:24:55;10.30;99.90
7708;DHT22;3896;48.758;8.888;2023-11-19T02:30:13;10.30;99.90
7708;DHT22;3896;48.758;8.888;2023-11-19T02:32:41;10.30;99.90
7708;DHT22;3896;48.758;8.888;2023-11-19T02:35:07;10.30;99.90
7708;DHT22;3896;48.758;8.888;2023-11-19T02:37:37;10.40;99.90
7708;DHT22;3896;48.758;8.888;2023-11-19T02:40:04;10.40;99.90
7708;DHT22;3896;48.758;8.888;2023-11-19T02:42:30;10.40;99.90
7708;DHT22;3896;48.758;8.888;2023-11-19T02:44:56;10.40;99.90
7708;DHT22;3896;48.758;8.888;2023-11-19T02:47:22;10.40;99.90
7708;DHT22;3896;48.758;8.888;2023-11-19T02:49:49;10.50;99.90
7708;DHT22;3896;48.758;8.888;2023-11-19T02:52:15;10.50;99.90
7708;DHT22;3896;48.758;8.888;2023-11-19T02:54:42;10.50;99.90
7708;DHT22;3896;48.758;8.888;2023-11-19T02:57:08;10.50;99.90
7708;DHT22;3896;48.758;8.888;2023-11-19T02:59:39;10.50;99.90
7708;DHT22;3896;48.758;8.888;2023-11-19T03:02:07;10.60;99.90
7708;DHT22;3896;48.758;8.888;2023-11-19T03:04:33;10.60;99.90
7708;DHT22;3896;48.758;8.888;2023-11-19T03:06:59;10.60;99.90
7708;DHT22;3896;48.758;8.888;2023-11-19T03:09:24;10.60;99.90
7708;DHT22;3896;48.758;8.888;2023-11-19T03:11:50;10.60;99.90
7708;DHT22;3896;48.758;8.888;2023-11-19T03:14:16;10.70;99.90
7708;DHT22;3896;48.758;8.888;2023-11-19T03:16:45;10.70;99.90
7708;DHT22;3896;48.758;8.888;2023-11-19T03:19:11;10.70;99.90
7708;DHT22;3896;48.758;8.888;2023-11-19T03:21:37;10.70;99.90
7708;DHT22;3896;48.758;8.888;2023-11-19T03:24:03;10.70;99.90
7708;DHT22;3896;48.758;8.888;2023-11-19T03:26:29;10.80;99.90
7708;DHT22;3896;48.758;8.888;2023-11-19T03:28:54;10.80;99.90
7708;DHT22;3896;48.758;8.888;2023-11-19T03:31:22;10.80;99.90
7708;DHT22;3896;48.758;8.888;2023-11-19T03:33:48;10.80;99.90
7708;DHT22;3896;48.758;8.888;2023-11-19T03:36:13;10.80;99.90
7708;DHT22;3896;48.758;8.888;2023-11-19T03:38:39;10.80;99.90
7708;DHT22;3896;48.758;8.888;2023-11-19T03:41:14;10.80;99.90
7708;DHT22;3896;48.758;8.888;2023-11-19T03:43:40;10.80;99.90
7708;DHT22;3896;48.758;8.888;2023-11-19T03:46:19;10.90;99.90
7708;DHT22;3896;48.758;8.888;2023-11-19T03:48:46;10.90;99.90
7708;DHT22;3896;48.758;8.888;2023-11-19T03:51:12;10.90;99.90
7708;DHT22;3896;48.758;8.888;2023-11-19T03:53:49;10.90;99.90
7708;DHT22;3896;48.758;8.888;2023-11-19T03:56:15;10.90;99.90
7708;DHT22;3896;48.758;8.888;2023-11-19T03:58:40;10.90;99.90
7708;DHT22;3896;48.758;8.888;2023-11-19T04:01:11;10.90;99.90
7708;DHT22;3896;48.758;8.888;2023-11-19T04:03:37;10.90;99.90
7708;DHT22;3896;48.758;8.888;2023-11-19T04:06:03;11.00;99.90
7708;DHT22;3896;48.758;8.888;2023-11-19T04:08:29;11.00;99.90
7708;DHT22;3896;48.758;8.888;2023-11-19T04:10:55;11.00;99.90
7708;DHT22;3896;48.758;8.888;2023-11-19T04:13:20;11.00;99.90
7708;DHT22;3896;48.758;8.888;2023-11-19T04:15:46;11.00;99.90
7708;DHT22;3896;48.758;8.888;2023-11-19T04:18:11;11.00;99.90
7708;DHT22;3896;48.758;8.888;2023-11-19T04:20:37;11.00;99.90
7708;DHT22;3896;48.758;8.888;2023-11-19T04:23:02;11.00;99.90
7708;DHT22;3896;48.758;8.888;2023-11-19T04:25:28;11.10;99.90
7708;DHT22;3896;48.758;8.888;2023-11-19T04:27:54;11.10;99.90
7708;DHT22;3896;48.758;8.888;2023-11-19T04:30:19;11.10;99.90
7708;DHT22;3896;48.758;8.888;2023-11-19T04:32:45;11.10;99.90
7708;DHT22;3896;48.758;8.888;2023-11-19T04:35:10;11.10;99.90
7708;DHT22;3896;48.758;8.888;2023-11-19T04:37:37;11.10;99.90
7708;DHT22;3896;48.758;8.888;2023-11-19T04:40:03;11.10;99.90
7708;DHT22;3896;48.758;8.888;2023-11-19T04:42:28;11.10;99.90
7708;DHT22;3896;48.758;8.888;2023-11-19T04:44:55;11.10;99.90
7708;DHT22;3896;48.758;8.888;2023-11-19T04:47:20;11.20;99.90
7708;DHT22;3896;48.758;8.888;2023-11-19T04:49:46;11.20;99.90
7708;DHT22;3896;48.758;8.888;2023-11-19T04:52:11;11.20;99.90
7708;DHT22;3896;48.758;8.888;2023-11-19T04:54:46;11.20;99.90
7708;DHT22;3896;48.758;8.888;2023-11-19T04:57:13;11.20;99.90
7708;DHT22;3896;48.758;8.888;2023-11-19T04:59:39;11.20;99.90
7708;DHT22;3896;48.758;8.888;2023-11-19T05:02:05;11.30;99.90
7708;DHT22;3896;48.758;8.888;2023-11-19T05:04:31;11.30;99.90
7708;DHT22;3896;48.758;8.888;2023-11-19T05:06:56;11.30;99.90
7708;DHT22;3896;48.758;8.888;2023-11-19T05:09:22;11.30;99.90
7708;DHT22;3896;48.758;8.888;2023-11-19T05:11:47;11.30;99.90
7708;DHT22;3896;48.758;8.888;2023-11-19T05:14:14;11.30;99.90
7708;DHT22;3896;48.758;8.888;2023-11-19T05:16:40;11.30;99.90
7708;DHT22;3896;48.758;8.888;2023-11-19T05:19:06;11.40;99.90
7708;DHT22;3896;48.758;8.888;2023-11-19T05:21:32;11.40;99.90
7708;DHT22;3896;48.758;8.888;2023-11-19T05:23:57;11.40;99.90
7708;DHT22;3896;48.758;8.888;2023-11-19T05:26:24;11.40;99.90
7708;DHT22;3896;48.758;8.888;2023-11-19T05:28:50;11.40;99.90
7708;DHT22;3896;48.758;8.888;2023-11-19T05:31:17;11.40;99.90
7708;DHT22;3896;48.758;8.888;2023-11-19T05:33:42;11.40;99.90
7708;DHT22;3896;48.758;8.888;2023-11-19T05:36:08;11.50;99.90
7708;DHT22;3896;48.758;8.888;2023-11-19T05:38:35;11.50;99.90
7708;DHT22;3896;48.758;8.888;2023-11-19T05:41:01;11.50;99.90
7708;DHT22;3896;48.758;8.888;2023-11-19T05:43:27;11.50;99.90
7708;DHT22;3896;48.758;8.888;2023-11-19T05:45:52;11.50;99.90
7708;DHT22;3896;48.758;8.888;2023-11-19T05:48:18;11.60;99.90
7708;DHT22;3896;48.758;8.888;2023-11-19T05:50:43;11.60;99.90
7708;DHT22;3896;48.758;8.888;2023-11-19T05:53:11;11.60;99.90
7708;DHT22;3896;48.758;8.888;2023-11-19T05:55:38;11.60;99.90
7708;DHT22;3896;48.758;8.888;2023-11-19T05:58:11;11.60;99.90
7708;DHT22;3896;48.758;8.888;2023-11-19T06:00:38;11.60;99.90
7708;DHT22;3896;48.758;8.888;2023-11-19T06:03:04;11.70;99.90
7708;DHT22;3896;48.758;8.888;2023-11-19T06:05:30;11.70;99.90
7708;DHT22;3896;48.758;8.888;2023-11-19T06:07:55;11.70;99.90
7708;DHT22;3896;48.758;8.888;2023-11-19T06:10:23;11.70;99.90
7708;DHT22;3896;48.758;8.888;2023-11-19T06:12:54;11.70;99.90
7708;DHT22;3896;48.758;8.888;2023-11-19T06:15:21;11.70;99.90
7708;DHT22;3896;48.758;8.888;2023-11-19T06:30:43;11.80;99.90
7708;DHT22;3896;48.758;8.888;2023-11-19T06:33:09;11.90;99.90
7708;DHT22;3896;48.758;8.888;2023-11-19T06:35:37;11.90;99.90
7708;DHT22;3896;48.758;8.888;2023-11-19T06:38:03;11.90;99.90
7708;DHT22;3896;48.758;8.888;2023-11-19T06:40:33;11.90;99.90
7708;DHT22;3896;48.758;8.888;2023-11-19T06:42:59;11.90;99.90
7708;DHT22;3896;48.758;8.888;2023-11-19T06:45:24;11.90;99.90
7708;DHT22;3896;48.758;8.888;2023-11-19T06:47:50;11.90;99.90
7708;DHT22;3896;48.758;8.888;2023-11-19T06:50:16;11.90;99.90
7708;DHT22;3896;48.758;8.888;2023-11-19T06:52:42;11.90;99.90
7708;DHT22;3896;48.758;8.888;2023-11-19T06:55:08;11.90;99.90
7708;DHT22;3896;48.758;8.888;2023-11-19T06:57:33;11.90;99.90
7708;DHT22;3896;48.758;8.888;2023-11-19T06:59:59;12.00;99.90
7708;DHT22;3896;48.758;8.888;2023-11-19T07:02:25;11.90;99.90
7708;DHT22;3896;48.758;8.888;2023-11-19T07:04:51;11.90;99.90
7708;DHT22;3896;48.758;8.888;2023-11-19T07:07:16;12.00;99.90
7708;DHT22;3896;48.758;8.888;2023-11-19T07:09:42;11.90;99.90
7708;DHT22;3896;48.758;8.888;2023-11-19T07:12:08;12.00;99.90
7708;DHT22;3896;48.758;8.888;2023-11-19T07:14:34;12.00;99.90
7708;DHT22;3896;48.758;8.888;2023-11-19T07:17:00;12.00;99.90
7708;DHT22;3896;48.758;8.888;2023-11-19T07:19:26;12.00;99.90
7708;DHT22;3896;48.758;8.888;2023-11-19T07:21:51;12.00;99.90
7708;DHT22;3896;48.758;8.888;2023-11-19T07:24:20;12.00;99.90
7708;DHT22;3896;48.758;8.888;2023-11-19T07:26:46;12.00;99.90
7708;DHT22;3896;48.758;8.888;2023-11-19T07:29:15;12.00;99.90
7708;DHT22;3896;48.758;8.888;2023-11-19T07:31:42;12.00;99.90
7708;DHT22;3896;48.758;8.888;2023-11-19T07:34:09;12.10;99.90
7708;DHT22;3896;48.758;8.888;2023-11-19T07:36:36;12.10;99.90
7708;DHT22;3896;48.758;8.888;2023-11-19T07:39:01;12.10;99.90
7708;DHT22;3896;48.758;8.888;2023-11-19T07:41:27;12.10;99.90
7708;DHT22;3896;48.758;8.888;2023-11-19T07:43:54;12.10;99.90
7708;DHT22;3896;48.758;8.888;2023-11-19T07:46:20;12.10;99.90
7708;DHT22;3896;48.758;8.888;2023-11-19T07:48:45;12.10;99.90
7708;DHT22;3896;48.758;8.888;2023-11-19T07:51:12;12.20;99.90
7708;DHT22;3896;48.758;8.888;2023-11-19T07:53:38;12.20;99.90
7708;DHT22;3896;48.758;8.888;2023-11-19T07:56:04;12.20;99.90
7708;DHT22;3896;48.758;8.888;2023-11-19T07:58:30;12.20;99.90
7708;DHT22;3896;48.758;8.888;2023-11-19T08:00:56;12.20;99.90
7708;DHT22;3896;48.758;8.888;2023-11-19T08:03:21;12.30;99.90
7708;DHT22;3896;48.758;8.888;2023-11-19T08:05:47;12.30;99.90
7708;DHT22;3896;48.758;8.888;2023-11-19T08:08:13;12.30;99.90
7708;DHT22;3896;48.758;8.888;2023-11-19T08:10:39;12.30;99.90
7708;DHT22;3896;48.758;8.888;2023-11-19T08:13:05;12.30;99.90
7708;DHT22;3896;48.758;8.888;2023-11-19T08:15:31;12.30;99.90
7708;DHT22;3896;48.758;8.888;2023-11-19T08:17:57;12.40;99.90
7708;DHT22;3896;48.758;8.888;2023-11-19T08:20:22;12.40;99.90
7708;DHT22;3896;48.758;8.888;2023-11-19T08:22:48;12.40;99.90
7708;DHT22;3896;48.758;8.888;2023-11-19T08:25:14;12.50;99.90
7708;DHT22;3896;48.758;8.888;2023-11-19T08:27:40;12.40;99.90
7708;DHT22;3896;48.758;8.888;2023-11-19T08:30:05;12.50;99.90
7708;DHT22;3896;48.758;8.888;2023-11-19T08:32:31;12.50;99.90
7708;DHT22;3896;48.758;8.888;2023-11-19T08:34:57;12.50;99.90
7708;DHT22;3896;48.758;8.888;2023-11-19T08:37:23;12.60;99.90
7708;DHT22;3896;48.758;8.888;2023-11-19T08:39:49;12.60;99.90
7708;DHT22;3896;48.758;8.888;2023-11-19T08:42:14;12.70;99.90
7708;DHT22;3896;48.758;8.888;2023-11-19T08:44:41;12.70;99.90
7708;DHT22;3896;48.758;8.888;2023-11-19T08:47:09;12.70;99.90
7708;DHT22;3896;48.758;8.888;2023-11-19T08:49:35;12.70;99.90
7708;DHT22;3896;48.758;8.888;2023-11-19T08:52:00;12.80;99.90
7708;DHT22;3896;48.758;8.888;2023-11-19T08:54:26;12.80;99.90
7708;DHT22;3896;48.758;8.888;2023-11-19T08:56:53;12.80;99.90
7708;DHT22;3896;48.758;8.888;2023-11-19T08:59:19;12.90;99.90
7708;DHT22;3896;48.758;8.888;2023-11-19T09:01:45;12.90;99.90
7708;DHT22;3896;48.758;8.888;2023-11-19T09:04:10;13.00;99.90
7708;DHT22;3896;48.758;8.888;2023-11-19T09:06:36;13.00;99.90
7708;DHT22;3896;48.758;8.888;2023-11-19T09:09:02;13.10;99.90
7708;DHT22;3896;48.758;8.888;2023-11-19T09:11:31;13.10;99.90
7708;DHT22;3896;48.758;8.888;2023-11-19T09:13:58;13.20;99.90
7708;DHT22;3896;48.758;8.888;2023-11-19T09:16:24;13.20;99.90
7708;DHT22;3896;48.758;8.888;2023-11-19T09:18:50;13.20;99.90
7708;DHT22;3896;48.758;8.888;2023-11-19T09:21:15;13.20;99.90
7708;DHT22;3896;48.758;8.888;2023-11-19T09:23:41;13.30;99.90
7708;DHT22;3896;48.758;8.888;2023-11-19T09:26:08;13.30;99.90
7708;DHT22;3896;48.758;8.888;2023-11-19T09:28:33;13.40;99.90
7708;DHT22;3896;48.758;8.888;2023-11-19T09:30:59;13.40;99.90
7708;DHT22;3896;48.758;8.888;2023-11-19T09:33:25;13.40;99.90
7708;DHT22;3896;48.758;8.888;2023-11-19T09:35:51;13.50;99.90
7708;DHT22;3896;48.758;8.888;2023-11-19T09:38:17;13.50;99.90
7708;DHT22;3896;48.758;8.888;2023-11-19T09:40:42;13.60;99.90
7708;DHT22;3896;48.758;8.888;2023-11-19T09:43:08;13.60;99.90
7708;DHT22;3896;48.758;8.888;2023-11-19T09:45:48;13.70;99.90
7708;DHT22;3896;48.758;8.888;2023-11-19T09:48:17;13.80;99.90
7708;DHT22;3896;48.758;8.888;2023-11-19T09:50:47;13.90;99.90
7708;DHT22;3896;48.758;8.888;2023-11-19T09:53:14;14.00;99.90
7708;DHT22;3896;48.758;8.888;2023-11-19T09:55:40;14.00;99.90
7708;DHT22;3896;48.758;8.888;2023-11-19T09:58:07;14.10;99.90
7708;DHT22;3896;48.758;8.888;2023-11-19T10:00:33;14.20;99.90
7708;DHT22;3896;48.758;8.888;2023-11-19T10:03:00;14.30;99.90
7708;DHT22;3896;48.758;8.888;2023-11-19T10:05:25;14.40;99.90
7708;DHT22;3896;48.758;8.888;2023-11-19T10:07:54;14.50;99.90
7708;DHT22;3896;48.758;8.888;2023-11-19T10:10:21;14.60;99.90
7708;DHT22;3896;48.758;8.888;2023-11-19T10:12:46;14.70;99.90
7708;DHT22;3896;48.758;8.888;2023-11-19T10:15:20;14.70;99.90
7708;DHT22;3896;48.758;8.888;2023-11-19T10:17:48;14.80;99.90
7708;DHT22;3896;48.758;8.888;2023-11-19T10:20:13;14.90;99.90
7708;DHT22;3896;48.758;8.888;2023-11-19T10:22:39;14.90;99.90
7708;DHT22;3896;48.758;8.888;2023-11-19T10:25:21;15.00;99.90
7708;DHT22;3896;48.758;8.888;2023-11-19T10:27:47;15.10;99.90
7708;DHT22;3896;48.758;8.888;2023-11-19T10:30:14;15.10;99.90
7708;DHT22;3896;48.758;8.888;2023-11-19T10:32:42;15.20;99.90
7708;DHT22;3896;48.758;8.888;2023-11-19T10:35:08;15.30;99.90
7708;DHT22;3896;48.758;8.888;2023-11-19T10:37:33;15.40;99.90
7708;DHT22;3896;48.758;8.888;2023-11-19T10:40:02;15.60;99.90
7708;DHT22;3896;48.758;8.888;2023-11-19T10:42:30;15.70;99.90
7708;DHT22;3896;48.758;8.888;2023-11-19T10:44:56;15.80;99.90
7708;DHT22;3896;48.758;8.888;2023-11-19T10:47:23;16.00;99.90
7708;DHT22;3896;48.758;8.888;2023-11-19T10:49:49;16.10;99.90
7708;DHT22;3896;48.758;8.888;2023-11-19T10:52:18;16.30;99.90
7708;DHT22;3896;48.758;8.888;2023-11-19T10:54:50;16.50;99.90
7708;DHT22;3896;48.758;8.888;2023-11-19T10:57:21;16.60;99.90
7708;DHT22;3896;48.758;8.888;2023-11-19T10:59:49;16.80;99.90
7708;DHT22;3896;48.758;8.888;2023-11-19T11:02:21;16.90;99.90
7708;DHT22;3896;48.758;8.888;2023-11-19T11:04:47;16.90;99.90
7708;DHT22;3896;48.758;8.888;2023-11-19T11:07:15;17.00;99.90
7708;DHT22;3896;48.758;8.888;2023-11-19T11:09:44;17.00;99.90
7708;DHT22;3896;48.758;8.888;2023-11-19T11:12:12;17.10;99.90
7708;DHT22;3896;48.758;8.888;2023-11-19T11:14:38;17.20;99.90
7708;DHT22;3896;48.758;8.888;2023-11-19T11:17:06;17.20;99.90
7708;DHT22;3896;48.758;8.888;2023-11-19T11:19:33;17.30;99.90
7708;DHT22;3896;48.758;8.888;2023-11-19T11:22:00;17.40;99.90
7708;DHT22;3896;48.758;8.888;2023-11-19T11:38:17;17.60;97.00
7708;DHT22;3896;48.758;8.888;2023-11-19T11:43:47;17.80;96.40
7708;DHT22;3896;48.758;8.888;2023-11-19T11:54:31;18.30;94.50
7708;DHT22;3896;48.758;8.888;2023-11-19T11:57:11;18.40;94.10
7708;DHT22;3896;48.758;8.888;2023-11-19T11:59:43;18.50;93.40
7708;DHT22;3896;48.758;8.888;2023-11-19T12:02:10;18.70;93.10
7708;DHT22;3896;48.758;8.888;2023-11-19T12:04:36;18.80;92.40
7708;DHT22;3896;48.758;8.888;2023-11-19T12:07:16;19.00;91.40
7708;DHT22;3896;48.758;8.888;2023-11-19T12:09:47;19.20;90.30
7708;DHT22;3896;48.758;8.888;2023-11-19T12:12:21;19.30;88.50
7708;DHT22;3896;48.758;8.888;2023-11-19T12:15:03;19.40;87.70
7708;DHT22;3896;48.758;8.888;2023-11-19T12:17:40;19.40;85.70
7708;DHT22;3896;48.758;8.888;2023-11-19T12:20:07;19.40;83.30
7708;DHT22;3896;48.758;8.888;2023-11-19T12:22:41;19.30;82.30
7708;DHT22;3896;48.758;8.888;2023-11-19T12:25:10;19.30;81.80
7708;DHT22;3896;48.758;8.888;2023-11-19T12:27:39;19.30;80.70
7708;DHT22;3896;48.758;8.888;2023-11-19T12:30:06;19.40;79.40
7708;DHT22;3896;48.758;8.888;2023-11-19T12:32:45;19.40;78.90
7708;DHT22;3896;48.758;8.888;2023-11-19T12:35:12;19.50;78.80
7708;DHT22;3896;48.758;8.888;2023-11-19T12:40:27;19.80;78.10
7708;DHT22;3896;48.758;8.888;2023-11-19T12:42:54;19.80;77.70
7708;DHT22;3896;48.758;8.888;2023-11-19T12:45:20;20.00;76.10
7708;DHT22;3896;48.758;8.888;2023-11-19T12:47:47;20.10;75.50
7708;DHT22;3896;48.758;8.888;2023-11-19T12:50:15;20.20;75.00
7708;DHT22;3896;48.758;8.888;2023-11-19T12:52:41;20.30;74.30
7708;DHT22;3896;48.758;8.888;2023-11-19T12:55:26;20.40;73.60
7708;DHT22;3896;48.758;8.888;2023-11-19T12:57:52;20.50;72.10
7708;DHT22;3896;48.758;8.888;2023-11-19T13:00:21;20.70;71.00
7708;DHT22;3896;48.758;8.888;2023-11-19T13:02:48;20.90;70.00
7708;DHT22;3896;48.758;8.888;2023-11-19T13:07:47;21.00;68.50
7708;DHT22;3896;48.758;8.888;2023-11-19T13:10:13;21.00;67.70
7708;DHT22;3896;48.758;8.888;2023-11-19T13:12:39;21.10;67.20
7708;DHT22;3896;48.758;8.888;2023-11-19T13:15:05;21.20;66.40
7708;DHT22;3896;48.758;8.888;2023-11-19T13:17:30;21.20;65.60
7708;DHT22;3896;48.758;8.888;2023-11-19T13:19:56;21.40;65.10
7708;DHT22;3896;48.758;8.888;2023-11-19T13:22:22;21.40;64.90
7708;DHT22;3896;48.758;8.888;2023-11-19T13:24:48;21.60;65.00
7708;DHT22;3896;48.758;8.888;2023-11-19T13:27:14;21.70;64.20
7708;DHT22;3896;48.758;8.888;2023-11-19T13:29:39;21.80;62.90
7708;DHT22;3896;48.758;8.888;2023-11-19T13:32:05;21.80;61.40
7708;DHT22;3896;48.758;8.888;2023-11-19T13:34:31;21.90;61.40
7708;DHT22;3896;48.758;8.888;2023-11-19T13:36:56;22.00;60.60
7708;DHT22;3896;48.758;8.888;2023-11-19T13:39:22;22.10;60.50
7708;DHT22;3896;48.758;8.888;2023-11-19T13:41:49;22.20;59.70
7708;DHT22;3896;48.758;8.888;2023-11-19T13:44:16;22.20;59.00
7708;DHT22;3896;48.758;8.888;2023-11-19T13:46:44;22.20;58.70
7708;DHT22;3896;48.758;8.888;2023-11-19T13:49:10;22.20;58.50
7708;DHT22;3896;48.758;8.888;2023-11-19T13:51:35;22.20;58.00
7708;DHT22;3896;48.758;8.888;2023-11-19T13:54:01;22.20;58.50
7708;DHT22;3896;48.758;8.888;2023-11-19T13:56:26;22.30;58.00
7708;DHT22;3896;48.758;8.888;2023-11-19T13:58:53;22.30;57.60
7708;DHT22;3896;48.758;8.888;2023-11-19T14:01:19;22.30;57.30
7708;DHT22;3896;48.758;8.888;2023-11-19T14:03:44;22.30;57.00
7708;DHT22;3896;48.758;8.888;2023-11-19T14:06:10;22.40;57.10
7708;DHT22;3896;48.758;8.888;2023-11-19T14:08:35;22.40;56.70
7708;DHT22;3896;48.758;8.888;2023-11-19T14:11:01;22.50;56.70
7708;DHT22;3896;48.758;8.888;2023-11-19T14:13:27;22.50;56.60
7708;DHT22;3896;48.758;8.888;2023-11-19T14:15:52;22.60;56.30
7708;DHT22;3896;48.758;8.888;2023-11-19T14:18:18;22.60;56.30
7708;DHT22;3896;48.758;8.888;2023-11-19T14:20:44;22.70;56.30
7708;DHT22;3896;48.758;8.888;2023-11-19T14:23:09;22.70;56.20
7708;DHT22;3896;48.758;8.888;2023-11-19T14:25:35;22.70;55.80
7708;DHT22;3896;48.758;8.888;2023-11-19T14:28:00;22.70;55.60
7708;DHT22;3896;48.758;8.888;2023-11-19T14:30:26;22.80;55.30
7708;DHT22;3896;48.758;8.888;2023-11-19T14:32:52;22.80;55.00
7708;DHT22;3896;48.758;8.888;2023-11-19T14:35:19;22.70;54.60
7708;DHT22;3896;48.758;8.888;2023-11-19T14:37:45;22.70;54.60
7708;DHT22;3896;48.758;8.888;2023-11-19T14:40:11;22.70;54.60
7708;DHT22;3896;48.758;8.888;2023-11-19T14:42:37;22.70;54.60
7708;DHT22;3896;48.758;8.888;2023-11-19T14:45:04;22.70;54.60
7708;DHT22;3896;48.758;8.888;2023-11-19T14:47:30;22.60;54.30
7708;DHT22;3896;48.758;8.888;2023-11-19T14:49:56;22.60;54.40
7708;DHT22;3896;48.758;8.888;2023-11-19T14:52:21;22.40;54.50
7708;DHT22;3896;48.758;8.888;2023-11-19T14:54:47;22.30;54.60
7708;DHT22;3896;48.758;8.888;2023-11-19T14:57:13;22.10;54.30
7708;DHT22;3896;48.758;8.888;2023-11-19T14:59:39;22.00;54.50
7708;DHT22;3896;48.758;8.888;2023-11-19T15:02:05;21.80;54.50
7708;DHT22;3896;48.758;8.888;2023-11-19T15:04:31;21.70;54.20
7708;DHT22;3896;48.758;8.888;2023-11-19T15:06:57;21.60;54.30
7708;DHT22;3896;48.758;8.888;2023-11-19T15:09:23;21.50;54.50
7708;DHT22;3896;48.758;8.888;2023-11-19T15:11:50;21.30;55.00
7708;DHT22;3896;48.758;8.888;2023-11-19T15:14:15;21.10;55.70
7708;DHT22;3896;48.758;8.888;2023-11-19T15:16:48;21.00;55.30
7708;DHT22;3896;48.758;8.888;2023-11-19T15:19:16;20.80;55.40
7708;DHT22;3896;48.758;8.888;2023-11-19T15:21:42;20.60;55.90
7708;DHT22;3896;48.758;8.888;2023-11-19T15:24:09;20.50;56.20
7708;DHT22;3896;48.758;8.888;2023-11-19T15:26:35;20.30;56.20
7708;DHT22;3896;48.758;8.888;2023-11-19T15:29:04;20.20;56.40
7708;DHT22;3896;48.758;8.888;2023-11-19T15:31:30;20.00;56.50
7708;DHT22;3896;48.758;8.888;2023-11-19T15:33:56;19.90;57.00
7708;DHT22;3896;48.758;8.888;2023-11-19T15:36:22;19.70;57.20
7708;DHT22;3896;48.758;8.888;2023-11-19T15:38:48;19.50;57.50
7708;DHT22;3896;48.758;8.888;2023-11-19T15:41:13;19.30;57.60
7708;DHT22;3896;48.758;8.888;2023-11-19T15:43:39;19.10;58.00
7708;DHT22;3896;48.758;8.888;2023-11-19T15:46:06;19.00;58.40
7708;DHT22;3896;48.758;8.888;2023-11-19T15:48:32;18.80;58.70
7708;DHT22;3896;48.758;8.888;2023-11-19T15:50:58;18.60;58.90
7708;DHT22;3896;48.758;8.888;2023-11-19T15:53:23;18.50;59.20
7708;DHT22;3896;48.758;8.888;2023-11-19T15:55:49;18.40;60.10
7708;DHT22;3896;48.758;8.888;2023-11-19T15:58:14;18.30;59.80
7708;DHT22;3896;48.758;8.888;2023-11-19T16:00:40;18.20;60.10
7708;DHT22;3896;48.758;8.888;2023-11-19T16:03:11;18.00;60.20
7708;DHT22;3896;48.758;8.888;2023-11-19T16:05:37;17.90;60.50
7708;DHT22;3896;48.758;8.888;2023-11-19T16:08:03;17.80;60.60
7708;DHT22;3896;48.758;8.888;2023-11-19T16:10:29;17.70;60.90
7708;DHT22;3896;48.758;8.888;2023-11-19T16:12:54;17.60;61.20
7708;DHT22;3896;48.758;8.888;2023-11-19T16:15:20;17.50;62.30
7708;DHT22;3896;48.758;8.888;2023-11-19T16:17:46;17.40;61.90
7708;DHT22;3896;48.758;8.888;2023-11-19T16:20:11;17.20;62.20
7708;DHT22;3896;48.758;8.888;2023-11-19T16:22:39;17.10;62.60
7708;DHT22;3896;48.758;8.888;2023-11-19T16:25:05;17.00;63.10
7708;DHT22;3896;48.758;8.888;2023-11-19T16:27:31;16.90;63.50
7708;DHT22;3896;48.758;8.888;2023-11-19T16:29:56;16.80;63.80
7708;DHT22;3896;48.758;8.888;2023-11-19T16:32:23;16.70;64.10
7708;DHT22;3896;48.758;8.888;2023-11-19T16:34:48;16.60;64.20
7708;DHT22;3896;48.758;8.888;2023-11-19T16:37:15;16.50;64.60
7708;DHT22;3896;48.758;8.888;2023-11-19T16:39:41;16.40;65.00
7708;DHT22;3896;48.758;8.888;2023-11-19T16:42:08;16.30;65.30
7708;DHT22;3896;48.758;8.888;2023-11-19T16:44:33;16.20;65.50
7708;DHT22;3896;48.758;8.888;2023-11-19T16:46:59;16.10;65.80